createdAt,value
2022-11-23T00:01:18.390Z,23.23
2022-11-23T00:03:48.284Z,21.95
2022-11-23T00:06:16.073Z,22.20
2022-11-23T00:08:43.317Z,22.45
2022-11-23T00:11:11.137Z,24.95
2022-11-23T00:13:41.352Z,25.77
2022-11-23T00:16:11.521Z,25.15
2022-11-23T00:18:38.766Z,20.77
2022-11-23T00:21:09.913Z,27.10
2022-11-23T00:23:37.804Z,24.17
2022-11-23T00:26:05.931Z,25.33
2022-11-23T00:28:34.874Z,22.70
2022-11-23T00:31:01.975Z,27.35
2022-11-23T00:33:29.150Z,24.25
2022-11-23T00:36:07.408Z,22.15
2022-11-23T00:38:34.658Z,27.52
2022-11-23T00:41:06.609Z,23.23
2022-11-23T00:43:34.412Z,27.77
2022-11-23T00:46:05.432Z,25.88
2022-11-23T00:48:33.048Z,24.60
2022-11-23T00:51:01.901Z,26.03
2022-11-23T00:53:29.197Z,28.67
2022-11-23T00:55:57.151Z,28.75
2022-11-23T00:58:25.365Z,30.30
2022-11-23T01:01:10.390Z,28.70
2022-11-23T01:03:43.376Z,31.00
2022-11-23T01:06:16.352Z,32.57
2022-11-23T01:08:50.493Z,32.20
2022-11-23T01:11:18.776Z,33.83
2022-11-23T01:13:46.156Z,30.92
2022-11-23T01:16:23.943Z,35.78
2022-11-23T01:18:55.497Z,31.50
2022-11-23T01:21:24.655Z,34.15
2022-11-23T01:23:52.553Z,40.55
2022-11-23T01:26:19.997Z,37.47
2022-11-23T01:28:47.653Z,34.85
2022-11-23T01:31:20.026Z,33.33
2022-11-23T01:33:47.327Z,36.17
2022-11-23T01:36:20.308Z,38.28
2022-11-23T01:38:48.480Z,35.77
2022-11-23T01:41:18.612Z,34.08
2022-11-23T01:43:46.580Z,28.17
2022-11-23T01:46:13.849Z,28.52
2022-11-23T01:49:05.707Z,33.60
2022-11-23T01:51:39.761Z,37.67
2022-11-23T01:54:14.018Z,34.17
2022-11-23T01:56:46.239Z,39.30
2022-11-23T01:59:17.783Z,36.30
2022-11-23T02:01:45.027Z,34.25
2022-11-23T02:04:17.764Z,39.85
2022-11-23T02:06:47.734Z,39.90
2022-11-23T02:09:17.086Z,30.08
2022-11-23T02:11:44.774Z,36.38
2022-11-23T02:14:17.889Z,38.25
2022-11-23T02:16:49.318Z,33.20
2022-11-23T02:19:43.257Z,33.33
2022-11-23T02:22:22.697Z,36.17
2022-11-23T02:24:53.604Z,34.70
2022-11-23T02:27:22.647Z,36.20
2022-11-23T02:29:51.700Z,37.00
2022-11-23T02:32:23.871Z,31.45
2022-11-23T02:34:55.665Z,36.67
2022-11-23T02:37:23.244Z,41.20
2022-11-23T02:39:54.497Z,34.67
2022-11-23T02:42:23.264Z,32.00
2022-11-23T02:45:16.243Z,32.17
2022-11-23T02:47:43.507Z,33.53
2022-11-23T02:50:10.705Z,35.53
2022-11-23T02:52:38.225Z,30.35
2022-11-23T02:55:05.779Z,31.55
2022-11-23T02:57:32.957Z,27.03
2022-11-23T03:00:00.105Z,26.95
2022-11-23T03:02:27.450Z,29.35
2022-11-23T03:04:54.624Z,26.23
2022-11-23T03:07:21.925Z,23.33
2022-11-23T03:09:50.303Z,25.63
2022-11-23T03:12:18.681Z,26.13
2022-11-23T03:14:46.448Z,26.40
2022-11-23T03:17:14.149Z,24.10
2022-11-23T03:19:45.421Z,25.83
2022-11-23T03:22:13.714Z,20.07
2022-11-23T03:24:40.971Z,19.97
2022-11-23T03:27:12.540Z,18.30
2022-11-23T03:29:41.118Z,20.50
2022-11-23T03:32:13.051Z,19.73
2022-11-23T03:34:43.420Z,21.03
2022-11-23T03:37:10.653Z,19.85
2022-11-23T03:39:40.720Z,22.00
2022-11-23T03:42:30.192Z,19.35
2022-11-23T03:44:58.004Z,23.53
2022-11-23T03:47:25.175Z,23.60
2022-11-23T03:49:52.375Z,21.95
2022-11-23T03:52:19.639Z,21.02
2022-11-23T03:54:47.991Z,20.73
2022-11-23T03:57:15.193Z,19.55
2022-11-23T03:59:42.512Z,18.88
2022-11-23T04:02:10.192Z,19.45
2022-11-23T04:04:44.780Z,18.95
2022-11-23T04:07:31.238Z,22.13
2022-11-23T04:10:02.066Z,20.27
2022-11-23T04:12:53.550Z,18.30
2022-11-23T04:15:20.920Z,20.07
2022-11-23T04:17:48.170Z,19.77
2022-11-23T04:20:15.572Z,23.73
2022-11-23T04:22:43.156Z,20.80
2022-11-23T04:25:10.779Z,25.20
2022-11-23T04:27:38.063Z,24.13
2022-11-23T04:30:05.785Z,25.27
2022-11-23T04:32:33.234Z,23.53
2022-11-23T04:35:00.678Z,20.57
2022-11-23T04:37:28.212Z,26.15
2022-11-23T04:39:55.461Z,25.37
2022-11-23T04:42:35.851Z,22.00
2022-11-23T04:45:03.460Z,23.97
2022-11-23T04:47:31.741Z,23.15
2022-11-23T04:50:02.731Z,21.35
2022-11-23T04:52:29.935Z,18.20
2022-11-23T04:54:58.158Z,17.08
2022-11-23T04:57:25.403Z,14.23
2022-11-23T04:59:53.001Z,17.92
2022-11-23T05:02:20.183Z,22.10
2022-11-23T05:05:22.711Z,17.65
2022-11-23T05:07:50.063Z,19.90
2022-11-23T05:10:19.564Z,19.95
2022-11-23T05:12:47.937Z,17.67
2022-11-23T05:15:17.252Z,20.48
2022-11-23T05:17:45.447Z,21.17
2022-11-23T05:20:21.447Z,21.92
2022-11-23T05:22:49.244Z,19.55
2022-11-23T05:25:20.704Z,16.63
2022-11-23T05:27:54.958Z,19.90
2022-11-23T05:30:22.651Z,19.10
2022-11-23T05:32:49.909Z,21.33
2022-11-23T05:35:19.030Z,17.80
2022-11-23T05:37:46.305Z,18.67
2022-11-23T05:40:14.025Z,18.05
2022-11-23T05:42:41.656Z,16.17
2022-11-23T05:45:15.254Z,16.85
2022-11-23T05:47:59.036Z,18.33
2022-11-23T05:50:38.653Z,14.90
2022-11-23T05:53:26.543Z,17.17
2022-11-23T05:56:01.860Z,17.40
2022-11-23T05:58:32.613Z,18.77
2022-11-23T06:01:01.022Z,16.42
2022-11-23T06:03:32.137Z,15.98
2022-11-23T06:06:00.089Z,17.75
2022-11-23T06:08:34.012Z,14.23
2022-11-23T06:11:01.729Z,15.90
2022-11-23T06:13:29.710Z,13.98
2022-11-23T06:15:57.532Z,13.50
2022-11-23T06:18:32.162Z,15.43
2022-11-23T06:21:01.069Z,13.48
2022-11-23T06:23:28.661Z,14.70
2022-11-23T06:26:01.346Z,15.45
2022-11-23T06:28:31.592Z,16.27
2022-11-23T06:31:05.247Z,15.18
2022-11-23T06:33:33.942Z,13.77
2022-11-23T06:36:03.058Z,13.07
2022-11-23T06:38:36.614Z,13.63
2022-11-23T06:41:20.646Z,14.25
2022-11-23T06:43:48.307Z,13.73
2022-11-23T06:46:24.350Z,12.60
2022-11-23T06:48:51.492Z,15.47
2022-11-23T06:51:18.657Z,14.23
2022-11-23T06:53:48.203Z,16.13
2022-11-23T06:56:16.119Z,14.75
2022-11-23T06:58:43.387Z,21.45
2022-11-23T07:01:16.578Z,16.98
2022-11-23T07:03:53.678Z,16.80
2022-11-23T07:06:33.852Z,16.58
2022-11-23T07:09:06.580Z,19.10
2022-11-23T07:11:53.992Z,18.00
2022-11-23T07:14:21.198Z,14.23
2022-11-23T07:16:51.202Z,18.17
2022-11-23T07:19:19.419Z,18.77
2022-11-23T07:21:47.608Z,19.80
2022-11-23T07:24:14.805Z,19.35
2022-11-23T07:26:42.122Z,18.98
2022-11-23T07:29:10.352Z,18.38
2022-11-23T07:31:37.589Z,18.00
2022-11-23T07:34:05.207Z,17.33
2022-11-23T07:36:33.249Z,15.50
2022-11-23T07:39:00.386Z,17.33
2022-11-23T07:41:27.956Z,16.65
2022-11-23T07:44:17.963Z,16.40
2022-11-23T07:46:45.628Z,20.23
2022-11-23T07:49:12.818Z,21.87
2022-11-23T07:51:40.002Z,13.98
2022-11-23T07:54:07.195Z,13.80
2022-11-23T07:56:34.487Z,11.98
2022-11-23T07:59:01.693Z,14.18
2022-11-23T08:01:29.046Z,13.05
2022-11-23T08:03:56.649Z,13.73
2022-11-23T08:06:24.036Z,11.30
2022-11-23T08:08:51.172Z,13.43
2022-11-23T08:11:19.522Z,14.57
2022-11-23T08:13:46.718Z,18.35
2022-11-23T08:16:13.904Z,11.90
2022-11-23T08:18:41.039Z,12.53
2022-11-23T08:21:08.221Z,18.23
2022-11-23T08:23:35.469Z,16.30
2022-11-23T08:26:06.579Z,11.65
2022-11-23T08:28:38.619Z,13.93
2022-11-23T08:31:11.341Z,15.93
2022-11-23T08:33:39.466Z,15.68
2022-11-23T08:36:08.581Z,12.70
2022-11-23T08:38:35.918Z,11.55
2022-11-23T08:41:05.486Z,13.43
2022-11-23T08:43:32.792Z,13.03
2022-11-23T08:46:05.646Z,14.55
2022-11-23T08:48:35.187Z,10.60
2022-11-23T08:51:02.407Z,11.25
2022-11-23T08:53:29.601Z,12.55
2022-11-23T08:56:00.251Z,10.88
2022-11-23T08:58:27.403Z,11.68
2022-11-23T09:00:54.535Z,14.60
2022-11-23T09:03:21.688Z,13.40
2022-11-23T09:05:48.864Z,15.37
2022-11-23T09:08:16.437Z,11.10
2022-11-23T09:10:44.000Z,17.40
2022-11-23T09:13:11.145Z,15.18
2022-11-23T09:15:38.407Z,14.03
2022-11-23T09:18:05.659Z,13.70
2022-11-23T09:20:32.833Z,9.95
2022-11-23T09:22:59.992Z,10.05
2022-11-23T09:25:27.185Z,13.00
2022-11-23T09:27:59.444Z,13.50
2022-11-23T09:30:27.344Z,11.52
2022-11-23T09:32:58.836Z,12.90
2022-11-23T09:35:26.338Z,10.63
2022-11-23T09:37:58.346Z,12.25
2022-11-23T09:40:39.069Z,10.73
2022-11-23T09:43:38.156Z,15.67
2022-11-23T09:46:42.695Z,12.90
2022-11-23T09:49:09.828Z,7.88
2022-11-23T09:51:39.167Z,10.90
2022-11-23T09:54:21.109Z,11.13
2022-11-23T09:56:51.202Z,12.30
2022-11-23T09:59:30.615Z,9.55
2022-11-23T10:01:58.723Z,13.50
2022-11-23T10:04:29.630Z,13.38
2022-11-23T10:07:22.767Z,9.90
2022-11-23T10:10:26.743Z,9.20
2022-11-23T10:13:20.683Z,12.03
2022-11-23T10:16:02.369Z,12.55
2022-11-23T10:18:38.450Z,10.45
2022-11-23T10:21:14.781Z,7.97
2022-11-23T10:23:50.770Z,12.13
2022-11-23T10:26:20.378Z,11.57
2022-11-23T10:28:49.454Z,11.40
2022-11-23T10:31:18.183Z,11.60
2022-11-23T10:34:08.288Z,11.30
2022-11-23T10:36:36.828Z,11.67
2022-11-23T10:39:17.523Z,12.27
2022-11-23T10:41:46.308Z,10.05
2022-11-23T10:44:31.077Z,10.40
2022-11-23T10:47:00.109Z,10.82
2022-11-23T10:49:30.375Z,7.33
2022-11-23T10:51:59.104Z,8.70
2022-11-23T10:54:28.366Z,10.27
2022-11-23T10:56:56.962Z,8.55
2022-11-23T10:59:38.687Z,10.45
2022-11-23T11:02:39.154Z,11.18
2022-11-23T11:05:53.591Z,10.85
2022-11-23T11:08:20.350Z,10.32
2022-11-23T11:10:58.231Z,8.20
2022-11-23T11:13:27.682Z,10.60
2022-11-23T11:15:58.033Z,12.43
2022-11-23T11:18:28.965Z,8.45
2022-11-23T11:20:58.659Z,11.32
2022-11-23T11:23:26.653Z,10.32
2022-11-23T11:26:04.316Z,9.80
2022-11-23T11:28:37.432Z,11.65
2022-11-23T11:31:25.350Z,13.57
2022-11-23T11:33:58.674Z,7.70
2022-11-23T11:36:32.588Z,10.52
2022-11-23T11:39:18.177Z,9.17
2022-11-23T11:41:48.842Z,10.67
2022-11-23T11:44:26.874Z,7.53
2022-11-23T11:47:06.352Z,11.23
2022-11-23T11:49:42.654Z,8.93
2022-11-23T11:52:21.818Z,7.17
2022-11-23T11:55:11.982Z,9.23
2022-11-23T11:57:54.724Z,8.38
2022-11-23T12:00:22.092Z,6.80
2022-11-23T12:03:08.478Z,10.65
2022-11-23T12:05:48.281Z,7.00
2022-11-23T12:08:34.216Z,8.43
2022-11-23T12:11:02.223Z,9.35
2022-11-23T12:13:33.998Z,5.88
2022-11-23T12:16:10.504Z,7.50
2022-11-23T12:18:41.847Z,10.23
2022-11-23T12:21:43.320Z,7.07
2022-11-23T12:24:27.031Z,8.07
2022-11-23T12:27:25.801Z,8.85
2022-11-23T12:30:16.342Z,9.00
2022-11-23T12:32:46.489Z,8.03
2022-11-23T12:35:44.211Z,7.95
2022-11-23T12:38:49.105Z,9.50
2022-11-23T12:41:42.154Z,9.05
2022-11-23T12:44:40.312Z,6.50
2022-11-23T12:47:29.765Z,9.43
2022-11-23T12:49:59.674Z,5.32
2022-11-23T12:52:55.787Z,5.55
2022-11-23T12:55:57.261Z,6.53
2022-11-23T12:58:32.350Z,7.70
2022-11-23T13:01:05.427Z,6.05
2022-11-23T13:04:12.922Z,7.13
2022-11-23T13:07:28.004Z,5.68
2022-11-23T13:10:32.372Z,6.43
2022-11-23T13:13:22.180Z,5.53
2022-11-23T13:16:21.536Z,6.88
2022-11-23T13:19:26.566Z,9.57
2022-11-23T13:21:54.498Z,6.32
2022-11-23T13:24:27.129Z,5.80
2022-11-23T13:27:13.071Z,5.85
2022-11-23T13:29:49.509Z,7.67
2022-11-23T13:32:46.443Z,5.87
2022-11-23T13:35:16.579Z,6.50
2022-11-23T13:38:01.516Z,7.32
2022-11-23T13:40:36.656Z,9.57
2022-11-23T13:43:20.883Z,7.88
2022-11-23T13:46:23.043Z,7.03
2022-11-23T13:48:57.513Z,6.00
2022-11-23T13:51:33.540Z,6.83
2022-11-23T13:54:21.209Z,6.78
2022-11-23T13:56:59.114Z,8.55
2022-11-23T13:59:34.634Z,8.10
2022-11-23T14:02:08.050Z,8.65
2022-11-23T14:04:38.613Z,7.13
2022-11-23T14:07:13.014Z,5.87
2022-11-23T14:09:53.876Z,6.68
2022-11-23T14:12:36.420Z,9.63
2022-11-23T14:15:11.111Z,13.52
2022-11-23T14:17:52.981Z,9.80
2022-11-23T14:20:39.975Z,7.20
2022-11-23T14:23:34.967Z,7.47
2022-11-23T14:26:23.299Z,6.37
2022-11-23T14:29:27.734Z,9.50
2022-11-23T14:32:27.225Z,8.82
2022-11-23T14:34:58.601Z,13.27
2022-11-23T14:37:58.065Z,10.80
2022-11-23T14:40:30.710Z,7.90
2022-11-23T14:43:00.140Z,8.38
2022-11-23T14:45:35.342Z,4.25
2022-11-23T14:48:22.755Z,7.78
2022-11-23T14:51:13.197Z,7.40
2022-11-23T14:54:02.545Z,4.93
2022-11-23T14:56:39.062Z,5.15
2022-11-23T14:59:09.988Z,4.28
2022-11-23T15:01:37.883Z,6.40
2022-11-23T15:04:10.791Z,6.05
2022-11-23T15:06:45.788Z,8.90
2022-11-23T15:09:47.836Z,6.15
2022-11-23T15:12:23.832Z,6.35
2022-11-23T15:14:53.910Z,7.97
2022-11-23T15:17:22.165Z,7.43
2022-11-23T15:19:59.184Z,8.65
2022-11-23T15:22:28.185Z,7.37
2022-11-23T15:25:08.987Z,7.38
2022-11-23T15:27:40.038Z,8.27
2022-11-23T15:30:27.093Z,5.72
2022-11-23T15:32:59.478Z,9.18
2022-11-23T15:35:35.065Z,4.25
2022-11-23T15:38:04.436Z,5.38
2022-11-23T15:40:35.545Z,5.53
2022-11-23T15:43:03.048Z,8.65
2022-11-23T15:46:11.482Z,7.45
2022-11-23T15:48:38.775Z,5.18
2022-11-23T15:51:08.823Z,4.37
2022-11-23T15:53:49.202Z,7.13
2022-11-23T15:56:28.717Z,5.95
2022-11-23T15:58:57.372Z,6.30
2022-11-23T16:01:25.306Z,6.20
2022-11-23T16:04:02.017Z,7.05
2022-11-23T16:06:38.189Z,5.45
2022-11-23T16:09:51.250Z,5.43
2022-11-23T16:13:08.643Z,5.05
2022-11-23T16:15:38.869Z,5.03
2022-11-23T16:18:23.352Z,5.78
2022-11-23T16:21:04.831Z,5.72
2022-11-23T16:23:44.160Z,9.23
2022-11-23T16:26:12.867Z,5.22
2022-11-23T16:28:51.706Z,6.78
2022-11-23T16:31:37.716Z,7.20
2022-11-23T16:34:17.118Z,5.45
2022-11-23T16:36:44.590Z,5.93
2022-11-23T16:39:11.904Z,7.57
2022-11-23T16:41:39.027Z,6.40
2022-11-23T16:44:06.305Z,8.30
2022-11-23T16:46:36.725Z,5.07
2022-11-23T16:49:12.906Z,7.10
2022-11-23T16:51:40.071Z,7.03
2022-11-23T16:54:13.370Z,4.50
2022-11-23T16:56:41.375Z,7.18
2022-11-23T16:59:16.163Z,7.07
2022-11-23T17:01:45.819Z,8.50
2022-11-23T17:04:16.009Z,8.02
2022-11-23T17:06:44.079Z,8.90
2022-11-23T17:09:11.615Z,8.60
2022-11-23T17:11:42.065Z,10.85
2022-11-23T17:14:18.919Z,8.83
2022-11-23T17:16:57.539Z,10.23
2022-11-23T17:19:28.287Z,8.90
2022-11-23T17:21:55.466Z,8.90
2022-11-23T17:24:22.694Z,8.70
2022-11-23T17:26:53.162Z,10.68
2022-11-23T17:29:21.174Z,9.98
2022-11-23T17:31:49.498Z,9.80
2022-11-23T17:34:17.871Z,7.72
2022-11-23T17:36:47.194Z,13.40
2022-11-23T17:39:19.849Z,11.60
2022-11-23T17:41:48.088Z,9.23
2022-11-23T17:44:16.466Z,10.90
2022-11-23T17:46:45.148Z,11.93
2022-11-23T17:49:14.682Z,15.68
2022-11-23T17:51:43.063Z,11.27
2022-11-23T17:54:10.247Z,10.40
2022-11-23T17:56:38.240Z,12.82
2022-11-23T17:59:06.553Z,11.73
2022-11-23T18:01:33.818Z,10.13
2022-11-23T18:04:01.253Z,11.85
2022-11-23T18:06:29.318Z,10.57
2022-11-23T18:08:56.922Z,9.60
2022-11-23T18:11:24.208Z,7.18
2022-11-23T18:13:51.716Z,8.35
2022-11-23T18:16:20.454Z,12.35
2022-11-23T18:18:48.296Z,9.50
2022-11-23T18:21:15.548Z,12.02
2022-11-23T18:23:42.917Z,11.55
2022-11-23T18:26:19.152Z,11.02
2022-11-23T18:28:46.657Z,11.73
2022-11-23T18:31:13.946Z,9.90
2022-11-23T18:33:41.885Z,11.68
2022-11-23T18:36:10.523Z,10.65
2022-11-23T18:38:38.149Z,11.93
2022-11-23T18:41:05.838Z,13.32
2022-11-23T18:43:33.536Z,15.32
2022-11-23T18:46:00.898Z,15.25
2022-11-23T18:48:28.147Z,20.13
2022-11-23T18:50:55.299Z,16.20
2022-11-23T18:53:23.068Z,12.13
2022-11-23T18:55:50.321Z,12.40
2022-11-23T18:58:18.056Z,9.65
2022-11-23T19:00:45.317Z,12.10
2022-11-23T19:03:12.811Z,11.95
2022-11-23T19:05:40.097Z,12.07
2022-11-23T19:08:08.670Z,10.10
2022-11-23T19:10:38.234Z,12.98
2022-11-23T19:13:06.185Z,13.30
2022-11-23T19:15:34.211Z,12.95
2022-11-23T19:18:01.431Z,13.90
2022-11-23T19:20:29.459Z,15.60
2022-11-23T19:22:56.609Z,9.68
2022-11-23T19:25:24.801Z,15.75
2022-11-23T19:27:52.738Z,14.93
2022-11-23T19:30:19.943Z,14.05
2022-11-23T19:32:47.232Z,11.32
2022-11-23T19:35:14.518Z,17.05
2022-11-23T19:37:41.691Z,16.15
2022-11-23T19:40:10.797Z,16.65
2022-11-23T19:42:38.048Z,18.45
2022-11-23T19:45:05.667Z,14.55
2022-11-23T19:47:32.856Z,12.60
2022-11-23T19:50:00.126Z,13.10
2022-11-23T19:52:55.421Z,18.40
2022-11-23T19:55:17.388Z,15.43
2022-11-23T19:57:44.544Z,13.73
2022-11-23T20:00:12.508Z,14.97
2022-11-23T20:02:39.748Z,16.13
2022-11-23T20:05:07.835Z,14.55
2022-11-23T20:07:35.193Z,49.95
2022-11-23T20:10:02.772Z,15.95
2022-11-23T20:12:29.944Z,14.35
2022-11-23T20:14:57.817Z,19.17
2022-11-23T20:17:27.073Z,15.45
2022-11-23T20:19:54.258Z,13.98
2022-11-23T20:22:21.433Z,15.32
2022-11-23T20:24:48.604Z,14.57
2022-11-23T20:27:15.826Z,15.57
2022-11-23T20:29:43.005Z,17.90
2022-11-23T20:32:12.102Z,15.25
2022-11-23T20:34:39.251Z,14.20
2022-11-23T20:37:06.546Z,13.70
2022-11-23T20:39:33.668Z,13.70
2022-11-23T20:42:01.733Z,19.43
2022-11-23T20:44:33.737Z,19.08
2022-11-23T20:47:04.021Z,15.80
2022-11-23T20:49:33.885Z,22.23
2022-11-23T20:52:02.018Z,14.57
2022-11-23T20:54:29.361Z,20.02
2022-11-23T20:56:59.747Z,19.05
2022-11-23T20:59:26.873Z,16.05
2022-11-23T21:01:54.184Z,16.55
2022-11-23T21:04:21.449Z,15.48
2022-11-23T21:06:48.637Z,19.17
2022-11-23T21:09:17.027Z,15.67
2022-11-23T21:12:03.077Z,17.10
2022-11-23T21:14:32.682Z,17.05
2022-11-23T21:17:00.273Z,17.93
2022-11-23T21:19:36.482Z,14.07
2022-11-23T21:22:12.640Z,14.90
2022-11-23T21:24:40.773Z,14.93
2022-11-23T21:27:12.025Z,16.45
2022-11-23T21:29:39.231Z,17.97
2022-11-23T21:32:06.378Z,13.55
2022-11-23T21:34:33.983Z,14.38
2022-11-23T21:37:01.597Z,18.40
2022-11-23T21:39:32.885Z,18.10
2022-11-23T21:42:00.096Z,15.17
2022-11-23T21:44:27.445Z,14.18
2022-11-23T21:46:54.762Z,18.48
2022-11-23T21:49:21.976Z,15.45
2022-11-23T21:51:49.246Z,16.85
2022-11-23T21:54:16.619Z,17.65
2022-11-23T21:56:45.642Z,20.27
2022-11-23T21:59:13.341Z,23.77
2022-11-23T22:01:41.635Z,18.80
2022-11-23T22:04:11.264Z,21.92
2022-11-23T22:06:39.340Z,22.50
2022-11-23T22:09:09.364Z,22.55
2022-11-23T22:11:39.398Z,20.67
2022-11-23T22:14:09.051Z,20.50
2022-11-23T22:16:38.448Z,25.60
2022-11-23T22:19:06.504Z,22.00
2022-11-23T22:21:35.959Z,24.88
2022-11-23T22:24:04.633Z,25.10
2022-11-23T22:26:32.222Z,22.80
2022-11-23T22:29:05.923Z,24.33
2022-11-23T22:31:34.551Z,25.60
2022-11-23T22:34:03.355Z,25.23
2022-11-23T22:36:30.557Z,20.13
2022-11-23T22:39:02.020Z,25.48
2022-11-23T22:41:36.687Z,28.40
2022-11-23T22:44:06.078Z,20.20
2022-11-23T22:46:33.572Z,21.13
2022-11-23T22:49:01.812Z,25.90
2022-11-23T22:51:29.732Z,27.83
2022-11-23T22:53:58.705Z,21.23
2022-11-23T22:56:26.929Z,24.23
2022-11-23T22:58:54.291Z,25.25
2022-11-23T23:01:24.641Z,24.02
2022-11-23T23:03:56.407Z,25.30
2022-11-23T23:06:29.128Z,25.70
2022-11-23T23:08:58.106Z,18.38
2022-11-23T23:11:27.182Z,26.27
2022-11-23T23:13:54.991Z,24.17
2022-11-23T23:16:22.907Z,24.85
2022-11-23T23:18:51.317Z,23.45
2022-11-23T23:21:21.063Z,29.00
2022-11-23T23:23:51.116Z,28.05
2022-11-23T23:26:21.885Z,24.40
2022-11-23T23:28:52.831Z,21.60
2022-11-23T23:31:20.042Z,27.10
2022-11-23T23:33:47.302Z,28.75
2022-11-23T23:36:16.778Z,25.80
2022-11-23T23:38:44.105Z,24.38
2022-11-23T23:41:12.372Z,29.60
2022-11-23T23:43:40.313Z,23.85
2022-11-23T23:46:11.267Z,26.25
2022-11-23T23:48:40.343Z,20.00
2022-11-23T23:51:15.334Z,22.45
2022-11-23T23:53:43.497Z,23.23
2022-11-23T23:56:22.686Z,22.27
2022-11-23T23:58:50.228Z,21.65
